createdAt,value
2022-12-03T00:00:17.010Z,1022.28
2022-12-03T00:01:17.041Z,1022.30
2022-12-03T00:02:17.240Z,1022.27
2022-12-03T00:03:17.329Z,1022.28
2022-12-03T00:04:17.095Z,1022.29
2022-12-03T00:05:17.105Z,1022.23
2022-12-03T00:06:17.161Z,1022.24
2022-12-03T00:07:17.149Z,1022.23
2022-12-03T00:08:17.222Z,1022.24
2022-12-03T00:09:17.181Z,1022.25
2022-12-03T00:10:17.394Z,1022.22
2022-12-03T00:11:17.250Z,1022.22
2022-12-03T00:12:17.333Z,1022.18
2022-12-03T00:13:17.271Z,1022.19
2022-12-03T00:14:17.319Z,1022.20
2022-12-03T00:15:17.337Z,1022.21
2022-12-03T00:16:17.479Z,1022.23
2022-12-03T00:17:17.417Z,1022.19
2022-12-03T00:18:17.419Z,1022.17
2022-12-03T00:19:17.568Z,1022.16
2022-12-03T00:20:17.510Z,1022.17
2022-12-03T00:21:17.526Z,1022.15
2022-12-03T00:22:17.529Z,1022.16
2022-12-03T00:23:17.561Z,1022.20
2022-12-03T00:24:17.601Z,1022.15
2022-12-03T00:25:17.620Z,1022.13
2022-12-03T00:26:17.754Z,1022.16
2022-12-03T00:27:17.685Z,1022.15
2022-12-03T00:28:17.704Z,1022.14
2022-12-03T00:29:17.689Z,1022.13
2022-12-03T00:30:17.703Z,1022.12
2022-12-03T00:31:17.791Z,1022.16
2022-12-03T00:32:17.712Z,1022.13
2022-12-03T00:33:17.731Z,1022.19
2022-12-03T00:34:17.762Z,1022.13
2022-12-03T00:35:17.791Z,1022.14
2022-12-03T00:36:17.817Z,1022.13
2022-12-03T00:37:17.857Z,1022.14
2022-12-03T00:38:17.857Z,1022.17
2022-12-03T00:39:17.865Z,1022.14
2022-12-03T00:40:17.899Z,1022.12
2022-12-03T00:41:17.952Z,1022.13
2022-12-03T00:42:17.934Z,1022.12
2022-12-03T00:43:17.965Z,1022.12
2022-12-03T00:44:17.974Z,1022.14
2022-12-03T00:45:18.009Z,1022.12
2022-12-03T00:46:21.352Z,1022.10
2022-12-03T00:47:18.057Z,1022.10
2022-12-03T00:48:18.071Z,1022.11
2022-12-03T00:49:18.106Z,1022.05
2022-12-03T00:50:18.134Z,1022.09
2022-12-03T00:51:18.187Z,1022.07
2022-12-03T00:52:18.170Z,1022.07
2022-12-03T00:53:18.201Z,1022.06
2022-12-03T00:54:18.232Z,1022.05
2022-12-03T00:55:18.268Z,1022.10
2022-12-03T00:56:18.317Z,1022.05
2022-12-03T00:57:18.313Z,1022.06
2022-12-03T00:58:18.319Z,1022.06
2022-12-03T00:59:18.354Z,1022.09
2022-12-03T01:00:18.389Z,1022.07
2022-12-03T01:01:18.516Z,1022.06
2022-12-03T01:02:18.543Z,1022.08
2022-12-03T01:03:18.470Z,1022.12
2022-12-03T01:04:18.570Z,1022.12
2022-12-03T01:05:18.572Z,1022.12
2022-12-03T01:06:18.525Z,1022.12
2022-12-03T01:07:18.554Z,1022.12
2022-12-03T01:08:18.585Z,1022.12
2022-12-03T01:09:18.609Z,1022.13
2022-12-03T01:10:18.645Z,1022.15
2022-12-03T01:11:18.705Z,1022.12
2022-12-03T01:12:18.679Z,1022.11
2022-12-03T01:13:18.706Z,1022.13
2022-12-03T01:14:18.743Z,1022.11
2022-12-03T01:15:18.773Z,1022.13
2022-12-03T01:16:18.877Z,1022.08
2022-12-03T01:17:18.822Z,1022.10
2022-12-03T01:18:18.838Z,1022.12
2022-12-03T01:19:18.885Z,1022.12
2022-12-03T01:20:18.893Z,1022.09
2022-12-03T01:21:18.952Z,1022.08
2022-12-03T01:22:18.943Z,1022.08
2022-12-03T01:23:18.971Z,1022.13
2022-12-03T01:24:18.994Z,1022.10
2022-12-03T01:25:19.028Z,1022.11
2022-12-03T01:26:19.071Z,1022.13
2022-12-03T01:27:19.067Z,1022.11
2022-12-03T01:28:19.115Z,1022.09
2022-12-03T01:29:19.086Z,1022.13
2022-12-03T01:30:19.124Z,1022.09
2022-12-03T01:31:19.263Z,1022.11
2022-12-03T01:32:19.197Z,1022.08
2022-12-03T01:33:19.219Z,1022.11
2022-12-03T01:34:19.228Z,1022.11
2022-12-03T01:35:19.265Z,1022.10
2022-12-03T01:36:19.304Z,1022.05
2022-12-03T01:37:19.292Z,1022.07
2022-12-03T01:38:19.331Z,1022.11
2022-12-03T01:39:19.355Z,1022.09
2022-12-03T01:40:19.377Z,1022.12
2022-12-03T01:41:19.432Z,1022.08
2022-12-03T01:42:19.464Z,1022.12
2022-12-03T01:43:19.483Z,1022.11
2022-12-03T01:44:19.525Z,1022.04
2022-12-03T01:45:19.559Z,1022.08
2022-12-03T01:46:19.669Z,1022.10
2022-12-03T01:47:19.606Z,1022.09
2022-12-03T01:48:19.637Z,1022.09
2022-12-03T01:49:19.672Z,1022.07
2022-12-03T01:50:19.702Z,1022.04
2022-12-03T01:51:19.748Z,1022.06
2022-12-03T01:52:19.734Z,1022.09
2022-12-03T01:53:19.773Z,1022.06
2022-12-03T01:54:19.810Z,1022.07
2022-12-03T01:55:19.829Z,1022.03
2022-12-03T01:56:19.893Z,1022.05
2022-12-03T01:57:19.875Z,1022.05
2022-12-03T01:58:19.914Z,1022.04
2022-12-03T01:59:19.957Z,1022.04
2022-12-03T02:00:19.950Z,1022.05
2022-12-03T02:01:20.106Z,1022.05
2022-12-03T02:02:19.984Z,1022.05
2022-12-03T02:03:20.015Z,1022.04
2022-12-03T02:04:20.113Z,1022.04
2022-12-03T02:05:20.077Z,1021.99
2022-12-03T02:06:20.118Z,1022.04
2022-12-03T02:07:20.107Z,1022.04
2022-12-03T02:08:20.158Z,1022.03
2022-12-03T02:09:20.184Z,1022.00
2022-12-03T02:10:20.215Z,1022.05
2022-12-03T02:11:20.265Z,1022.04
2022-12-03T02:12:20.296Z,1022.04
2022-12-03T02:13:20.331Z,1022.00
2022-12-03T02:14:20.360Z,1021.96
2022-12-03T02:15:20.397Z,1022.04
2022-12-03T02:16:20.527Z,1022.04
2022-12-03T02:17:20.441Z,1022.00
2022-12-03T02:18:20.490Z,1022.05
2022-12-03T02:19:20.515Z,1022.05
2022-12-03T02:20:20.543Z,1022.08
2022-12-03T02:21:20.600Z,1022.04
2022-12-03T02:22:20.658Z,1022.06
2022-12-03T02:23:20.652Z,1022.05
2022-12-03T02:24:20.677Z,1022.01
2022-12-03T02:25:20.701Z,1022.05
2022-12-03T02:26:20.764Z,1022.04
2022-12-03T02:27:20.880Z,1021.98
2022-12-03T02:28:20.799Z,1022.05
2022-12-03T02:29:20.830Z,1021.98
2022-12-03T02:30:20.840Z,1022.01
2022-12-03T02:31:20.916Z,1022.00
2022-12-03T02:32:20.899Z,1021.98
2022-12-03T02:33:20.924Z,1022.00
2022-12-03T02:34:20.950Z,1022.01
2022-12-03T02:35:21.000Z,1022.03
2022-12-03T02:36:21.049Z,1021.99
2022-12-03T02:37:21.030Z,1022.01
2022-12-03T02:38:21.053Z,1021.99
2022-12-03T02:39:21.071Z,1021.98
2022-12-03T02:40:21.076Z,1021.98
2022-12-03T02:41:21.118Z,1021.96
2022-12-03T02:42:21.112Z,1021.97
2022-12-03T02:43:21.129Z,1021.93
2022-12-03T02:44:21.147Z,1021.96
2022-12-03T02:45:21.163Z,1021.94
2022-12-03T02:46:21.243Z,1021.97
2022-12-03T02:47:21.179Z,1021.98
2022-12-03T02:48:21.206Z,1021.98
2022-12-03T02:49:21.241Z,1022.01
2022-12-03T02:50:21.272Z,1021.97
2022-12-03T02:51:21.328Z,1022.04
2022-12-03T02:52:21.309Z,1021.98
2022-12-03T02:53:21.336Z,1022.00
2022-12-03T02:54:21.370Z,1022.01
2022-12-03T02:55:21.391Z,1022.00
2022-12-03T02:56:21.439Z,1022.00
2022-12-03T02:57:21.455Z,1022.01
2022-12-03T02:58:21.469Z,1021.96
2022-12-03T02:59:21.515Z,1021.97
2022-12-03T03:00:21.545Z,1022.00
2022-12-03T03:01:21.608Z,1021.97
2022-12-03T03:02:21.784Z,1021.98
2022-12-03T03:03:21.616Z,1021.97
2022-12-03T03:04:21.662Z,1021.98
2022-12-03T03:05:21.659Z,1021.98
2022-12-03T03:06:21.698Z,1021.95
2022-12-03T03:07:21.685Z,1021.98
2022-12-03T03:08:21.707Z,1021.96
2022-12-03T03:09:21.749Z,1021.97
2022-12-03T03:10:21.804Z,1021.95
2022-12-03T03:11:21.856Z,1021.95
2022-12-03T03:12:21.856Z,1021.93
2022-12-03T03:13:21.875Z,1021.95
2022-12-03T03:14:21.899Z,1022.02
2022-12-03T03:15:21.923Z,1021.95
2022-12-03T03:16:22.021Z,1021.95
2022-12-03T03:17:21.963Z,1021.97
2022-12-03T03:18:21.990Z,1021.98
2022-12-03T03:19:22.009Z,1021.91
2022-12-03T03:20:22.031Z,1021.95
2022-12-03T03:21:22.265Z,1021.95
2022-12-03T03:22:22.120Z,1021.91
2022-12-03T03:23:22.122Z,1021.90
2022-12-03T03:24:22.150Z,1021.94
2022-12-03T03:25:22.192Z,1021.90
2022-12-03T03:26:22.231Z,1021.92
2022-12-03T03:27:22.237Z,1021.92
2022-12-03T03:28:22.248Z,1021.88
2022-12-03T03:29:22.283Z,1021.90
2022-12-03T03:30:22.319Z,1021.84
2022-12-03T03:31:22.410Z,1021.85
2022-12-03T03:32:22.381Z,1021.85
2022-12-03T03:33:22.427Z,1021.83
2022-12-03T03:34:22.449Z,1021.80
2022-12-03T03:35:22.467Z,1021.81
2022-12-03T03:36:22.506Z,1021.78
2022-12-03T03:37:22.521Z,1021.84
2022-12-03T03:38:22.546Z,1021.79
2022-12-03T03:39:22.598Z,1021.81
2022-12-03T03:40:22.605Z,1021.78
2022-12-03T03:41:22.629Z,1021.74
2022-12-03T03:42:22.649Z,1021.74
2022-12-03T03:43:22.688Z,1021.71
2022-12-03T03:44:22.724Z,1021.71
2022-12-03T03:45:28.781Z,1021.77
2022-12-03T03:46:22.828Z,1021.73
2022-12-03T03:47:22.766Z,1021.69
2022-12-03T03:48:22.786Z,1021.69
2022-12-03T03:49:22.905Z,1021.67
2022-12-03T03:50:22.819Z,1021.64
2022-12-03T03:51:22.867Z,1021.71
2022-12-03T03:52:22.866Z,1021.59
2022-12-03T03:53:22.902Z,1021.65
2022-12-03T03:54:22.947Z,1021.60
2022-12-03T03:55:22.978Z,1021.60
2022-12-03T03:56:23.030Z,1021.59
2022-12-03T03:57:23.044Z,1021.62
2022-12-03T03:58:23.080Z,1021.56
2022-12-03T03:59:23.106Z,1021.57
2022-12-03T04:00:23.133Z,1021.58
2022-12-03T04:01:23.189Z,1021.55
2022-12-03T04:02:23.161Z,1021.57
2022-12-03T04:03:23.178Z,1021.56
2022-12-03T04:04:23.348Z,1021.57
2022-12-03T04:05:23.227Z,1021.56
2022-12-03T04:06:23.263Z,1021.56
2022-12-03T04:07:23.293Z,1021.52
2022-12-03T04:08:23.291Z,1021.53
2022-12-03T04:09:23.325Z,1021.54
2022-12-03T04:10:23.340Z,1021.54
2022-12-03T04:11:23.390Z,1021.54
2022-12-03T04:12:23.425Z,1021.49
2022-12-03T04:13:23.454Z,1021.50
2022-12-03T04:14:23.495Z,1021.48
2022-12-03T04:15:23.521Z,1021.49
2022-12-03T04:16:23.626Z,1021.50
2022-12-03T04:17:23.586Z,1021.50
2022-12-03T04:18:23.612Z,1021.47
2022-12-03T04:19:23.637Z,1021.46
2022-12-03T04:20:23.693Z,1021.48
2022-12-03T04:21:23.678Z,1021.47
2022-12-03T04:22:23.655Z,1021.50
2022-12-03T04:23:29.272Z,1021.50
2022-12-03T04:24:23.684Z,1021.46
2022-12-03T04:25:23.714Z,1021.47
2022-12-03T04:26:23.758Z,1021.53
2022-12-03T04:27:23.772Z,1021.45
2022-12-03T04:28:23.815Z,1021.44
2022-12-03T04:29:23.847Z,1021.46
2022-12-03T04:30:23.948Z,1021.43
2022-12-03T04:31:23.968Z,1021.46
2022-12-03T04:32:23.915Z,1021.42
2022-12-03T04:33:23.968Z,1021.44
2022-12-03T04:34:23.980Z,1021.37
2022-12-03T04:35:24.054Z,1021.39
2022-12-03T04:36:24.075Z,1021.40
2022-12-03T04:37:24.057Z,1021.39
2022-12-03T04:38:24.076Z,1021.40
2022-12-03T04:39:24.145Z,1021.37
2022-12-03T04:40:24.084Z,1021.40
2022-12-03T04:41:24.126Z,1021.39
2022-12-03T04:42:24.111Z,1021.39
2022-12-03T04:43:24.171Z,1021.40
2022-12-03T04:44:24.271Z,1021.40
2022-12-03T04:45:24.228Z,1021.38
2022-12-03T04:46:24.303Z,1021.38
2022-12-03T04:47:24.242Z,1021.36
2022-12-03T04:48:24.279Z,1021.38
2022-12-03T04:49:24.314Z,1021.37
2022-12-03T04:50:24.352Z,1021.40
2022-12-03T04:51:24.409Z,1021.38
2022-12-03T04:52:24.398Z,1021.37
2022-12-03T04:53:24.425Z,1021.37
2022-12-03T04:54:24.453Z,1021.40
2022-12-03T04:55:24.489Z,1021.40
2022-12-03T04:56:24.578Z,1021.42
2022-12-03T04:57:24.524Z,1021.40
2022-12-03T04:58:24.530Z,1021.41
2022-12-03T04:59:24.577Z,1021.42
2022-12-03T05:00:24.591Z,1021.36
2022-12-03T05:01:24.840Z,1021.35
2022-12-03T05:02:24.612Z,1021.38
2022-12-03T05:03:24.617Z,1021.32
2022-12-03T05:04:24.651Z,1021.35
2022-12-03T05:05:24.678Z,1021.32
2022-12-03T05:06:24.716Z,1021.37
2022-12-03T05:07:24.849Z,1021.31
2022-12-03T05:08:24.762Z,1021.31
2022-12-03T05:09:24.792Z,1021.32
2022-12-03T05:10:24.813Z,1021.33
2022-12-03T05:11:24.836Z,1021.32
2022-12-03T05:12:24.826Z,1021.27
2022-12-03T05:13:24.851Z,1021.25
2022-12-03T05:14:24.863Z,1021.27
2022-12-03T05:15:24.884Z,1021.29
2022-12-03T05:16:24.961Z,1021.25
2022-12-03T05:17:24.947Z,1021.22
2022-12-03T05:18:24.953Z,1021.26
2022-12-03T05:19:24.980Z,1021.26
2022-12-03T05:20:25.006Z,1021.20
2022-12-03T05:21:25.214Z,1021.19
2022-12-03T05:22:25.068Z,1021.21
2022-12-03T05:23:25.101Z,1021.17
2022-12-03T05:24:25.131Z,1021.22
2022-12-03T05:25:25.163Z,1021.18
2022-12-03T05:26:25.197Z,1021.20
2022-12-03T05:27:25.211Z,1021.16
2022-12-03T05:28:25.242Z,1021.19
2022-12-03T05:29:25.284Z,1021.25
2022-12-03T05:30:25.371Z,1021.21
2022-12-03T05:31:25.372Z,1021.21
2022-12-03T05:32:25.361Z,1021.18
2022-12-03T05:33:25.371Z,1021.21
2022-12-03T05:34:25.395Z,1021.21
2022-12-03T05:35:25.421Z,1021.20
2022-12-03T05:36:25.608Z,1021.24
2022-12-03T05:37:25.458Z,1021.20
2022-12-03T05:38:25.516Z,1021.18
2022-12-03T05:39:25.506Z,1021.18
2022-12-03T05:40:25.552Z,1021.23
2022-12-03T05:41:25.590Z,1021.21
2022-12-03T05:42:25.597Z,1021.25
2022-12-03T05:43:25.626Z,1021.24
2022-12-03T05:44:25.652Z,1021.24
2022-12-03T05:45:25.684Z,1021.21
2022-12-03T05:46:25.777Z,1021.21
2022-12-03T05:47:25.733Z,1021.20
2022-12-03T05:48:25.756Z,1021.22
2022-12-03T05:49:25.791Z,1021.22
2022-12-03T05:50:25.818Z,1021.18
2022-12-03T05:51:25.862Z,1021.13
2022-12-03T05:52:25.867Z,1021.11
2022-12-03T05:53:25.886Z,1021.14
2022-12-03T05:54:25.903Z,1021.15
2022-12-03T05:55:25.956Z,1021.12
2022-12-03T05:56:25.990Z,1021.12
2022-12-03T05:57:26.013Z,1021.10
2022-12-03T05:58:26.012Z,1021.09
2022-12-03T05:59:26.042Z,1021.11
2022-12-03T06:00:26.067Z,1021.07
2022-12-03T06:01:26.115Z,1021.08
2022-12-03T06:02:26.215Z,1021.12
2022-12-03T06:03:26.256Z,1021.12
2022-12-03T06:04:26.174Z,1021.11
2022-12-03T06:05:26.181Z,1021.07
2022-12-03T06:06:26.206Z,1021.09
2022-12-03T06:07:26.189Z,1021.09
2022-12-03T06:08:26.203Z,1021.10
2022-12-03T06:09:26.219Z,1021.09
2022-12-03T06:10:26.225Z,1021.07
2022-12-03T06:11:26.302Z,1021.10
2022-12-03T06:12:26.329Z,1021.09
2022-12-03T06:13:26.359Z,1021.11
2022-12-03T06:14:26.364Z,1021.13
2022-12-03T06:15:26.394Z,1021.14
2022-12-03T06:16:26.447Z,1021.13
2022-12-03T06:17:26.448Z,1021.13
2022-12-03T06:18:26.477Z,1021.13
2022-12-03T06:19:26.516Z,1021.16
2022-12-03T06:20:26.540Z,1021.13
2022-12-03T06:21:26.589Z,1021.11
2022-12-03T06:22:26.612Z,1021.13
2022-12-03T06:23:26.630Z,1021.10
2022-12-03T06:24:26.628Z,1021.13
2022-12-03T06:25:26.627Z,1021.13
2022-12-03T06:26:26.674Z,1021.16
2022-12-03T06:27:26.697Z,1021.14
2022-12-03T06:28:26.706Z,1021.17
2022-12-03T06:29:26.734Z,1021.14
2022-12-03T06:30:26.735Z,1021.16
2022-12-03T06:31:26.861Z,1021.12
2022-12-03T06:32:26.783Z,1021.12
2022-12-03T06:33:26.811Z,1021.12
2022-12-03T06:34:26.836Z,1021.08
2022-12-03T06:35:26.866Z,1021.11
2022-12-03T06:36:26.894Z,1021.11
2022-12-03T06:37:26.921Z,1021.11
2022-12-03T06:38:26.955Z,1021.14
2022-12-03T06:39:26.991Z,1021.14
2022-12-03T06:40:27.014Z,1021.14
2022-12-03T06:41:27.029Z,1021.17
2022-12-03T06:42:27.022Z,1021.14
2022-12-03T06:43:27.068Z,1021.14
2022-12-03T06:44:27.079Z,1021.15
2022-12-03T06:45:27.101Z,1021.13
2022-12-03T06:46:27.219Z,1021.18
2022-12-03T06:47:27.163Z,1021.18
2022-12-03T06:48:27.171Z,1021.19
2022-12-03T06:49:27.189Z,1021.18
2022-12-03T06:50:27.216Z,1021.18
2022-12-03T06:51:27.259Z,1021.21
2022-12-03T06:52:27.201Z,1021.14
2022-12-03T06:53:27.267Z,1021.12
2022-12-03T06:54:27.296Z,1021.15
2022-12-03T06:55:27.344Z,1021.17
2022-12-03T06:56:32.829Z,1021.16
2022-12-03T06:57:27.377Z,1021.15
2022-12-03T06:58:27.407Z,1021.12
2022-12-03T06:59:27.455Z,1021.08
2022-12-03T07:00:27.475Z,1021.11
2022-12-03T07:01:27.537Z,1021.13
2022-12-03T07:02:27.556Z,1021.09
2022-12-03T07:03:27.624Z,1021.06
2022-12-03T07:04:27.614Z,1021.07
2022-12-03T07:05:27.708Z,1021.13
2022-12-03T07:06:27.655Z,1021.09
2022-12-03T07:07:27.692Z,1021.05
2022-12-03T07:08:27.704Z,1021.08
2022-12-03T07:09:27.736Z,1021.03
2022-12-03T07:10:27.740Z,1021.05
2022-12-03T07:11:27.786Z,1021.03
2022-12-03T07:12:27.793Z,1021.04
2022-12-03T07:13:27.803Z,1021.07
2022-12-03T07:14:27.830Z,1021.09
2022-12-03T07:15:27.850Z,1021.06
2022-12-03T07:16:27.958Z,1021.05
2022-12-03T07:17:27.874Z,1021.10
2022-12-03T07:18:27.918Z,1021.09
2022-12-03T07:19:32.588Z,1021.11
2022-12-03T07:20:27.965Z,1021.09
2022-12-03T07:21:28.032Z,1021.11
2022-12-03T07:22:28.028Z,1021.08
2022-12-03T07:23:28.067Z,1021.10
2022-12-03T07:24:28.108Z,1021.10
2022-12-03T07:25:28.138Z,1021.09
2022-12-03T07:26:28.184Z,1021.10
2022-12-03T07:27:28.203Z,1021.09
2022-12-03T07:28:28.232Z,1021.05
2022-12-03T07:29:28.262Z,1021.07
2022-12-03T07:30:28.316Z,1021.10
2022-12-03T07:31:28.379Z,1021.07
2022-12-03T07:32:28.302Z,1021.07
2022-12-03T07:33:28.328Z,1021.07
2022-12-03T07:34:28.374Z,1021.08
2022-12-03T07:35:28.417Z,1021.09
2022-12-03T07:36:28.450Z,1021.08
2022-12-03T07:37:28.472Z,1021.10
2022-12-03T07:38:28.502Z,1021.12
2022-12-03T07:39:28.529Z,1021.08
2022-12-03T07:40:28.642Z,1021.10
2022-12-03T07:41:28.602Z,1021.10
2022-12-03T07:42:28.593Z,1021.04
2022-12-03T07:43:28.621Z,1021.04
2022-12-03T07:44:28.636Z,1020.99
2022-12-03T07:45:28.673Z,1021.05
2022-12-03T07:46:28.736Z,1020.99
2022-12-03T07:47:28.746Z,1021.00
2022-12-03T07:48:28.765Z,1021.01
2022-12-03T07:49:28.799Z,1021.01
2022-12-03T07:50:28.795Z,1021.03
2022-12-03T07:51:32.187Z,1021.02
2022-12-03T07:52:28.833Z,1021.04
2022-12-03T07:53:28.829Z,1021.07
2022-12-03T07:54:28.839Z,1021.07
2022-12-03T07:55:28.867Z,1021.13
2022-12-03T07:56:28.902Z,1021.11
2022-12-03T07:57:28.891Z,1021.11
2022-12-03T07:58:28.902Z,1021.11
2022-12-03T07:59:28.896Z,1021.06
2022-12-03T08:00:28.950Z,1021.05
2022-12-03T08:01:29.019Z,1021.07
2022-12-03T08:02:29.136Z,1021.01
2022-12-03T08:03:28.980Z,1021.03
2022-12-03T08:04:29.012Z,1021.03
2022-12-03T08:05:29.016Z,1021.05
2022-12-03T08:06:29.058Z,1021.00
2022-12-03T08:07:29.094Z,1020.99
2022-12-03T08:08:29.095Z,1021.01
2022-12-03T08:09:29.137Z,1021.00
2022-12-03T08:10:29.152Z,1020.92
2022-12-03T08:11:29.204Z,1020.92
2022-12-03T08:12:29.203Z,1020.94
2022-12-03T08:13:29.242Z,1020.91
2022-12-03T08:14:29.260Z,1020.92
2022-12-03T08:15:33.681Z,1020.91
2022-12-03T08:16:29.406Z,1020.89
2022-12-03T08:17:29.314Z,1020.92
2022-12-03T08:18:29.349Z,1020.90
2022-12-03T08:19:29.348Z,1020.92
2022-12-03T08:20:29.377Z,1020.87
2022-12-03T08:21:29.422Z,1020.90
2022-12-03T08:22:29.396Z,1020.89
2022-12-03T08:23:29.404Z,1020.89
2022-12-03T08:24:29.420Z,1020.88
2022-12-03T08:25:29.438Z,1020.91
2022-12-03T08:26:29.476Z,1020.88
2022-12-03T08:27:29.486Z,1020.89
2022-12-03T08:28:29.511Z,1020.89
2022-12-03T08:29:29.550Z,1020.90
2022-12-03T08:30:29.704Z,1020.91
2022-12-03T08:31:33.489Z,1020.81
2022-12-03T08:32:29.627Z,1020.87
2022-12-03T08:33:29.670Z,1020.88
2022-12-03T08:34:29.691Z,1020.87
2022-12-03T08:35:29.698Z,1020.86
2022-12-03T08:36:29.718Z,1020.88
2022-12-03T08:37:29.717Z,1020.89
2022-12-03T08:38:29.756Z,1020.87
2022-12-03T08:39:29.773Z,1020.87
2022-12-03T08:40:29.859Z,1020.87
2022-12-03T08:41:29.840Z,1020.94
2022-12-03T08:42:29.871Z,1020.93
2022-12-03T08:43:29.913Z,1020.89
2022-12-03T08:44:29.944Z,1020.94
2022-12-03T08:45:29.993Z,1020.93
2022-12-03T08:46:30.037Z,1020.90
2022-12-03T08:47:30.021Z,1020.90
2022-12-03T08:48:30.030Z,1020.89
2022-12-03T08:49:30.037Z,1020.89
2022-12-03T08:50:30.059Z,1020.93
2022-12-03T08:51:30.106Z,1020.95
2022-12-03T08:52:30.106Z,1020.92
2022-12-03T08:53:30.112Z,1020.93
2022-12-03T08:54:30.119Z,1020.94
2022-12-03T08:55:30.159Z,1020.91
2022-12-03T08:56:30.192Z,1020.93
2022-12-03T08:57:30.182Z,1020.94
2022-12-03T08:58:30.239Z,1020.94
2022-12-03T08:59:30.254Z,1020.97
2022-12-03T09:00:30.295Z,1020.95
2022-12-03T09:01:30.428Z,1020.94
2022-12-03T09:02:30.346Z,1020.96
2022-12-03T09:03:30.360Z,1020.97
2022-12-03T09:04:30.534Z,1020.94
2022-12-03T09:05:30.380Z,1020.95
2022-12-03T09:06:30.436Z,1020.97
2022-12-03T09:07:30.485Z,1020.94
2022-12-03T09:08:30.430Z,1020.96
2022-12-03T09:09:30.468Z,1020.98
2022-12-03T09:10:30.475Z,1020.97
2022-12-03T09:11:30.524Z,1020.99
2022-12-03T09:12:30.544Z,1020.94
2022-12-03T09:13:30.545Z,1020.95
2022-12-03T09:14:30.592Z,1020.94
2022-12-03T09:15:30.603Z,1020.91
2022-12-03T09:16:30.674Z,1020.91
2022-12-03T09:17:30.608Z,1020.92
2022-12-03T09:18:30.604Z,1020.90
2022-12-03T09:19:30.632Z,1020.90
2022-12-03T09:20:30.643Z,1020.86
2022-12-03T09:21:30.690Z,1020.86
2022-12-03T09:22:30.694Z,1020.84
2022-12-03T09:23:30.733Z,1020.82
2022-12-03T09:24:30.766Z,1020.82
2022-12-03T09:25:30.786Z,1020.81
2022-12-03T09:26:30.829Z,1020.79
2022-12-03T09:27:30.832Z,1020.84
2022-12-03T09:28:30.900Z,1020.83
2022-12-03T09:29:30.881Z,1020.84
2022-12-03T09:30:30.913Z,1020.85
2022-12-03T09:31:30.994Z,1020.80
2022-12-03T09:32:31.021Z,1020.78
2022-12-03T09:33:31.016Z,1020.79
2022-12-03T09:34:31.053Z,1020.77
2022-12-03T09:35:31.082Z,1020.76
2022-12-03T09:36:31.123Z,1020.79
2022-12-03T09:37:31.130Z,1020.81
2022-12-03T09:38:31.137Z,1020.80
2022-12-03T09:39:31.166Z,1020.78
2022-12-03T09:40:31.187Z,1020.82
2022-12-03T09:41:31.254Z,1020.78
2022-12-03T09:42:31.239Z,1020.76
2022-12-03T09:43:49.418Z,1020.81
2022-12-03T09:44:31.292Z,1020.77
2022-12-03T09:45:31.482Z,1020.77
2022-12-03T09:46:31.465Z,1020.77
2022-12-03T09:47:31.369Z,1020.73
2022-12-03T09:48:31.379Z,1020.75
2022-12-03T09:49:31.400Z,1020.69
2022-12-03T09:50:31.430Z,1020.67
2022-12-03T09:51:31.469Z,1020.70
2022-12-03T09:52:31.466Z,1020.68
2022-12-03T09:53:31.481Z,1020.66
2022-12-03T09:54:31.514Z,1020.68
2022-12-03T09:55:31.541Z,1020.66
2022-12-03T09:56:31.599Z,1020.68
2022-12-03T09:57:31.615Z,1020.68
2022-12-03T09:58:34.748Z,1020.63
2022-12-03T09:59:31.655Z,1020.62
2022-12-03T10:00:31.674Z,1020.61
2022-12-03T10:01:31.730Z,1020.61
2022-12-03T10:02:31.680Z,1020.57
2022-12-03T10:03:31.721Z,1020.56
2022-12-03T10:04:31.772Z,1020.54
2022-12-03T10:05:31.767Z,1020.53
2022-12-03T10:06:31.827Z,1020.49
2022-12-03T10:07:31.802Z,1020.47
2022-12-03T10:08:32.463Z,1020.45
2022-12-03T10:09:31.832Z,1020.45
2022-12-03T10:10:31.846Z,1020.44
2022-12-03T10:11:31.902Z,1020.42
2022-12-03T10:12:31.848Z,1020.45
2022-12-03T10:13:31.928Z,1020.45
2022-12-03T10:14:31.938Z,1020.43
2022-12-03T10:15:31.975Z,1020.44
2022-12-03T10:16:32.091Z,1020.40
2022-12-03T10:17:32.021Z,1020.40
2022-12-03T10:18:34.469Z,1020.42
2022-12-03T10:19:32.055Z,1020.43
2022-12-03T10:20:32.078Z,1020.39
2022-12-03T10:21:32.122Z,1020.36
2022-12-03T10:22:32.109Z,1020.41
2022-12-03T10:23:32.147Z,1020.39
2022-12-03T10:24:32.180Z,1020.39
2022-12-03T10:25:32.245Z,1020.35
2022-12-03T10:26:32.345Z,1020.35
2022-12-03T10:27:32.355Z,1020.35
2022-12-03T10:28:32.293Z,1020.34
2022-12-03T10:29:34.239Z,1020.33
2022-12-03T10:30:32.377Z,1020.30
2022-12-03T10:31:32.423Z,1020.33
2022-12-03T10:32:32.367Z,1020.28
2022-12-03T10:33:32.375Z,1020.28
2022-12-03T10:34:32.398Z,1020.28
2022-12-03T10:35:32.435Z,1020.28
2022-12-03T10:36:32.495Z,1020.32
2022-12-03T10:37:32.493Z,1020.30
2022-12-03T10:38:32.519Z,1020.27
2022-12-03T10:39:32.541Z,1020.20
2022-12-03T10:40:32.556Z,1020.21
2022-12-03T10:41:32.620Z,1020.22
2022-12-03T10:42:32.629Z,1020.20
2022-12-03T10:43:32.670Z,1020.24
2022-12-03T10:44:32.684Z,1020.21
2022-12-03T10:45:32.698Z,1020.21
2022-12-03T10:46:32.877Z,1020.23
2022-12-03T10:47:32.879Z,1020.20
2022-12-03T10:48:32.911Z,1020.21
2022-12-03T10:49:32.852Z,1020.19
2022-12-03T10:50:32.886Z,1020.19
2022-12-03T10:51:32.930Z,1020.19
2022-12-03T10:52:32.924Z,1020.18
2022-12-03T10:53:32.950Z,1020.20
2022-12-03T10:54:32.973Z,1020.20
2022-12-03T10:55:32.999Z,1020.20
2022-12-03T10:56:33.032Z,1020.17
2022-12-03T10:57:33.018Z,1020.14
2022-12-03T10:58:33.048Z,1020.20
2022-12-03T10:59:33.078Z,1020.16
2022-12-03T11:00:33.107Z,1020.13
2022-12-03T11:01:33.245Z,1020.15
2022-12-03T11:02:33.142Z,1020.14
2022-12-03T11:03:33.218Z,1020.17
2022-12-03T11:04:33.197Z,1020.15
2022-12-03T11:05:33.208Z,1020.15
2022-12-03T11:06:33.271Z,1020.16
2022-12-03T11:07:33.314Z,1020.15
2022-12-03T11:08:33.285Z,1020.14
2022-12-03T11:09:33.319Z,1020.15
2022-12-03T11:10:33.333Z,1020.16
2022-12-03T11:11:33.372Z,1020.14
2022-12-03T11:12:33.379Z,1020.13
2022-12-03T11:13:33.417Z,1020.13
2022-12-03T11:14:33.419Z,1020.10
2022-12-03T11:15:33.484Z,1020.08
2022-12-03T11:16:33.673Z,1020.05
2022-12-03T11:17:33.504Z,1020.05
2022-12-03T11:18:33.538Z,1020.04
2022-12-03T11:19:33.569Z,1020.02
2022-12-03T11:20:33.577Z,1020.03
2022-12-03T11:21:33.893Z,1019.99
2022-12-03T11:22:33.616Z,1019.99
2022-12-03T11:23:33.641Z,1020.01
2022-12-03T11:24:33.659Z,1019.95
2022-12-03T11:25:33.690Z,1019.95
2022-12-03T11:26:33.722Z,1019.93
2022-12-03T11:27:33.716Z,1019.95
2022-12-03T11:28:33.735Z,1019.93
2022-12-03T11:29:33.746Z,1019.92
2022-12-03T11:30:33.763Z,1019.93
2022-12-03T11:31:33.953Z,1019.90
2022-12-03T11:32:33.824Z,1019.92
2022-12-03T11:33:33.851Z,1019.85
2022-12-03T11:34:33.883Z,1019.84
2022-12-03T11:35:33.882Z,1019.83
2022-12-03T11:37:00.469Z,1019.82
2022-12-03T11:37:33.924Z,1019.79
2022-12-03T11:38:33.921Z,1019.77
2022-12-03T11:39:33.958Z,1019.76
2022-12-03T11:40:39.430Z,1019.73
2022-12-03T11:41:34.169Z,1019.75
2022-12-03T11:42:34.109Z,1019.73
2022-12-03T11:43:34.104Z,1019.76
2022-12-03T11:44:34.177Z,1019.71
2022-12-03T11:45:34.155Z,1019.71
2022-12-03T11:46:34.235Z,1019.71
2022-12-03T11:47:34.228Z,1019.70
2022-12-03T11:48:34.228Z,1019.73
2022-12-03T11:49:34.264Z,1019.70
2022-12-03T11:50:39.687Z,1019.73
2022-12-03T11:51:34.334Z,1019.74
2022-12-03T11:52:34.378Z,1019.74
2022-12-03T11:53:34.404Z,1019.74
2022-12-03T11:54:34.434Z,1019.74
2022-12-03T11:55:34.468Z,1019.75
2022-12-03T11:56:34.498Z,1019.69
2022-12-03T11:57:34.528Z,1019.64
2022-12-03T11:58:34.549Z,1019.70
2022-12-03T11:59:34.584Z,1019.65
2022-12-03T12:00:34.624Z,1019.67
2022-12-03T12:01:38.565Z,1019.66
2022-12-03T12:02:34.797Z,1019.63
2022-12-03T12:03:34.811Z,1019.62
2022-12-03T12:04:34.782Z,1019.63
2022-12-03T12:05:34.753Z,1019.61